EmailTwitter


Surface observations / United Kingdom / EGUB (03658)

Regions: Quebec | Canada | USA | Europe | France | UK | Elsewhere
Station
Display
Info & Location for EGUB (03658) | Help decoding METAR

Weather Conditions observed on 2018/11/15 at 02:50 UTC at BENSON RAF, UK (EGUB)

Sky conditions: partly cloudy.

Temperature: 10.0 Celsius.

Dewpoint: 10.0 Celsius.

Relative Humidity: 100%

Winds: South at 2 km/h or 1 knots.

Mean Sea level Pressure: 101.90 kilopascals.

Horizontal visibility: 1.24 statute miles or 1.99 kilometers.

Height of the Ceiling: 152 metres ( 500 feet ).

Coded METAR:

EGUB 150250Z AUTO 17001KT 2000 // BKN005/// BKN012/// 10/10 Q1019=